sensor_id;sensor_type;location;lat;lon;timestamp;P1;durP1;ratioP1;P2;durP2;ratioP2
64210;SDS011;50528;48.514;14.394;2022-10-16T00:00:41;6.60;;;4.00;;
64210;SDS011;50528;48.514;14.394;2022-10-16T00:02:04;7.70;;;3.50;;
64210;SDS011;50528;48.514;14.394;2022-10-16T00:03:07;7.20;;;3.80;;
64210;SDS011;50528;48.514;14.394;2022-10-16T00:04:12;416.90;;;8.60;;
64210;SDS011;50528;48.514;14.394;2022-10-16T00:05:16;6.50;;;3.50;;
64210;SDS011;50528;48.514;14.394;2022-10-16T00:06:20;6.00;;;3.40;;
64210;SDS011;50528;48.514;14.394;2022-10-16T00:07:25;7.40;;;3.50;;
64210;SDS011;50528;48.514;14.394;2022-10-16T00:08:29;6.60;;;3.80;;
64210;SDS011;50528;48.514;14.394;2022-10-16T00:09:33;7.20;;;3.80;;
64210;SDS011;50528;48.514;14.394;2022-10-16T00:10:39;8.00;;;3.70;;
64210;SDS011;50528;48.514;14.394;2022-10-16T00:11:46;5.40;;;3.50;;
64210;SDS011;50528;48.514;14.394;2022-10-16T00:12:51;6.20;;;3.70;;
64210;SDS011;50528;48.514;14.394;2022-10-16T00:13:56;7.20;;;3.90;;
64210;SDS011;50528;48.514;14.394;2022-10-16T00:15:03;4.90;;;3.70;;
64210;SDS011;50528;48.514;14.394;2022-10-16T00:16:10;6.30;;;3.50;;
64210;SDS011;50528;48.514;14.394;2022-10-16T00:17:15;6.00;;;3.60;;
64210;SDS011;50528;48.514;14.394;2022-10-16T00:18:20;7.10;;;3.90;;
64210;SDS011;50528;48.514;14.394;2022-10-16T00:19:24;8.40;;;3.70;;
64210;SDS011;50528;48.514;14.394;2022-10-16T00:20:30;5.90;;;3.60;;
64210;SDS011;50528;48.514;14.394;2022-10-16T00:21:37;5.00;;;3.50;;
64210;SDS011;50528;48.514;14.394;2022-10-16T00:22:47;9.60;;;3.90;;
64210;SDS011;50528;48.514;14.394;2022-10-16T00:23:52;5.40;;;3.50;;
64210;SDS011;50528;48.514;14.394;2022-10-16T00:24:57;9.70;;;3.90;;
64210;SDS011;50528;48.514;14.394;2022-10-16T00:26:04;7.40;;;3.50;;
64210;SDS011;50528;48.514;14.394;2022-10-16T00:27:09;7.40;;;3.90;;
64210;SDS011;50528;48.514;14.394;2022-10-16T00:28:13;8.90;;;3.50;;
64210;SDS011;50528;48.514;14.394;2022-10-16T00:29:16;7.50;;;3.50;;
64210;SDS011;50528;48.514;14.394;2022-10-16T00:30:22;5.20;;;3.50;;
64210;SDS011;50528;48.514;14.394;2022-10-16T00:31:26;6.20;;;3.50;;
64210;SDS011;50528;48.514;14.394;2022-10-16T00:32:31;7.40;;;3.40;;
64210;SDS011;50528;48.514;14.394;2022-10-16T00:33:35;4.70;;;3.50;;
64210;SDS011;50528;48.514;14.394;2022-10-16T00:34:40;7.20;;;3.50;;
64210;SDS011;50528;48.514;14.394;2022-10-16T00:35:44;5.00;;;3.40;;
64210;SDS011;50528;48.514;14.394;2022-10-16T00:36:50;6.20;;;3.40;;
64210;SDS011;50528;48.514;14.394;2022-10-16T00:37:56;7.40;;;3.60;;
64210;SDS011;50528;48.514;14.394;2022-10-16T00:39:00;7.10;;;3.80;;
64210;SDS011;50528;48.514;14.394;2022-10-16T00:40:05;4.50;;;3.40;;
64210;SDS011;50528;48.514;14.394;2022-10-16T00:41:15;5.00;;;3.40;;
64210;SDS011;50528;48.514;14.394;2022-10-16T00:42:26;4.90;;;3.10;;
64210;SDS011;50528;48.514;14.394;2022-10-16T00:43:36;5.00;;;3.10;;
64210;SDS011;50528;48.514;14.394;2022-10-16T00:45:51;6.60;;;3.40;;
64210;SDS011;50528;48.514;14.394;2022-10-16T00:46:54;6.30;;;3.40;;
64210;SDS011;50528;48.514;14.394;2022-10-16T00:48:01;9.20;;;3.20;;
64210;SDS011;50528;48.514;14.394;2022-10-16T00:49:08;5.20;;;3.20;;
64210;SDS011;50528;48.514;14.394;2022-10-16T00:51:31;374.10;;;8.90;;
64210;SDS011;50528;48.514;14.394;2022-10-16T00:52:41;319.80;;;8.40;;
64210;SDS011;50528;48.514;14.394;2022-10-16T00:53:49;357.70;;;10.60;;
64210;SDS011;50528;48.514;14.394;2022-10-16T00:54:53;170.60;;;6.00;;
64210;SDS011;50528;48.514;14.394;2022-10-16T00:55:59;29.80;;;3.70;;
64210;SDS011;50528;48.514;14.394;2022-10-16T00:57:04;7.50;;;3.10;;
64210;SDS011;50528;48.514;14.394;2022-10-16T00:58:12;5.50;;;3.10;;
64210;SDS011;50528;48.514;14.394;2022-10-16T00:59:16;10.10;;;3.20;;
64210;SDS011;50528;48.514;14.394;2022-10-16T01:00:26;16.50;;;3.00;;
64210;SDS011;50528;48.514;14.394;2022-10-16T01:01:32;307.90;;;8.00;;
64210;SDS011;50528;48.514;14.394;2022-10-16T01:02:35;368.00;;;9.10;;
64210;SDS011;50528;48.514;14.394;2022-10-16T01:03:39;6.50;;;2.90;;
64210;SDS011;50528;48.514;14.394;2022-10-16T01:04:44;14.40;;;2.70;;
64210;SDS011;50528;48.514;14.394;2022-10-16T01:06:10;168.80;;;5.30;;
64210;SDS011;50528;48.514;14.394;2022-10-16T01:08:44;3.40;;;2.40;;
64210;SDS011;50528;48.514;14.394;2022-10-16T01:11:34;4.20;;;2.30;;
64210;SDS011;50528;48.514;14.394;2022-10-16T01:14:26;3.60;;;2.30;;
64210;SDS011;50528;48.514;14.394;2022-10-16T01:15:48;112.30;;;4.50;;
64210;SDS011;50528;48.514;14.394;2022-10-16T01:17:02;2.50;;;2.10;;
64210;SDS011;50528;48.514;14.394;2022-10-16T01:20:47;4.60;;;2.40;;
64210;SDS011;50528;48.514;14.394;2022-10-16T01:21:57;3.40;;;2.40;;
64210;SDS011;50528;48.514;14.394;2022-10-16T01:27:21;6.20;;;2.80;;
64210;SDS011;50528;48.514;14.394;2022-10-16T01:28:32;10.60;;;2.80;;
64210;SDS011;50528;48.514;14.394;2022-10-16T01:29:54;57.20;;;3.50;;
64210;SDS011;50528;48.514;14.394;2022-10-16T01:31:06;473.90;;;10.60;;
64210;SDS011;50528;48.514;14.394;2022-10-16T01:33:43;136.50;;;5.30;;
64210;SDS011;50528;48.514;14.394;2022-10-16T01:34:52;4.70;;;2.70;;
64210;SDS011;50528;48.514;14.394;2022-10-16T01:36:09;10.60;;;2.80;;
64210;SDS011;50528;48.514;14.394;2022-10-16T01:37:32;6.00;;;2.80;;
64210;SDS011;50528;48.514;14.394;2022-10-16T01:38:44;105.90;;;4.40;;
64210;SDS011;50528;48.514;14.394;2022-10-16T01:39:55;6.30;;;2.50;;
64210;SDS011;50528;48.514;14.394;2022-10-16T01:41:11;3.10;;;2.50;;
64210;SDS011;50528;48.514;14.394;2022-10-16T01:42:27;3.90;;;2.30;;
64210;SDS011;50528;48.514;14.394;2022-10-16T01:43:45;4.00;;;2.40;;
64210;SDS011;50528;48.514;14.394;2022-10-16T01:44:56;4.70;;;2.90;;
64210;SDS011;50528;48.514;14.394;2022-10-16T01:46:02;3.50;;;2.50;;
64210;SDS011;50528;48.514;14.394;2022-10-16T01:47:13;4.30;;;2.50;;
64210;SDS011;50528;48.514;14.394;2022-10-16T01:48:21;7.90;;;2.70;;
64210;SDS011;50528;48.514;14.394;2022-10-16T01:49:53;11.00;;;2.90;;
64210;SDS011;50528;48.514;14.394;2022-10-16T01:51:08;4.10;;;2.80;;
64210;SDS011;50528;48.514;14.394;2022-10-16T01:52:17;5.40;;;2.70;;
64210;SDS011;50528;48.514;14.394;2022-10-16T01:53:27;5.10;;;3.00;;
64210;SDS011;50528;48.514;14.394;2022-10-16T01:54:35;3.50;;;2.50;;
64210;SDS011;50528;48.514;14.394;2022-10-16T01:55:43;4.80;;;2.60;;
64210;SDS011;50528;48.514;14.394;2022-10-16T01:56:49;3.50;;;2.30;;
64210;SDS011;50528;48.514;14.394;2022-10-16T01:57:56;3.50;;;2.30;;
64210;SDS011;50528;48.514;14.394;2022-10-16T01:59:08;3.90;;;2.20;;
64210;SDS011;50528;48.514;14.394;2022-10-16T02:00:17;3.40;;;2.30;;
64210;SDS011;50528;48.514;14.394;2022-10-16T02:01:25;35.80;;;2.70;;
64210;SDS011;50528;48.514;14.394;2022-10-16T02:02:36;205.60;;;4.40;;
64210;SDS011;50528;48.514;14.394;2022-10-16T02:03:43;8.70;;;2.40;;
64210;SDS011;50528;48.514;14.394;2022-10-16T02:04:50;42.90;;;2.70;;
64210;SDS011;50528;48.514;14.394;2022-10-16T02:05:57;134.80;;;3.50;;
64210;SDS011;50528;48.514;14.394;2022-10-16T02:07:01;7.40;;;2.50;;
64210;SDS011;50528;48.514;14.394;2022-10-16T02:08:11;37.30;;;3.00;;
64210;SDS011;50528;48.514;14.394;2022-10-16T02:09:23;29.50;;;2.70;;
64210;SDS011;50528;48.514;14.394;2022-10-16T02:10:27;77.50;;;3.00;;
64210;SDS011;50528;48.514;14.394;2022-10-16T02:11:35;122.60;;;5.10;;
64210;SDS011;50528;48.514;14.394;2022-10-16T02:12:40;4.70;;;2.80;;
64210;SDS011;50528;48.514;14.394;2022-10-16T02:13:50;5.00;;;2.70;;
64210;SDS011;50528;48.514;14.394;2022-10-16T02:14:58;2.90;;;2.50;;
64210;SDS011;50528;48.514;14.394;2022-10-16T02:16:01;3.10;;;2.40;;
64210;SDS011;50528;48.514;14.394;2022-10-16T02:17:12;38.00;;;2.80;;
64210;SDS011;50528;48.514;14.394;2022-10-16T02:18:17;3.10;;;2.60;;
64210;SDS011;50528;48.514;14.394;2022-10-16T02:19:21;2.70;;;2.10;;
64210;SDS011;50528;48.514;14.394;2022-10-16T02:20:26;47.80;;;3.40;;
64210;SDS011;50528;48.514;14.394;2022-10-16T02:21:39;61.00;;;3.30;;
64210;SDS011;50528;48.514;14.394;2022-10-16T02:22:47;71.40;;;3.90;;
64210;SDS011;50528;48.514;14.394;2022-10-16T02:25:06;147.50;;;4.40;;
64210;SDS011;50528;48.514;14.394;2022-10-16T02:26:15;3.80;;;2.60;;
64210;SDS011;50528;48.514;14.394;2022-10-16T02:27:49;8.20;;;2.70;;
64210;SDS011;50528;48.514;14.394;2022-10-16T02:28:59;202.80;;;5.50;;
64210;SDS011;50528;48.514;14.394;2022-10-16T02:30:09;94.50;;;3.90;;
64210;SDS011;50528;48.514;14.394;2022-10-16T02:31:18;150.70;;;5.00;;
64210;SDS011;50528;48.514;14.394;2022-10-16T02:32:30;80.40;;;3.50;;
64210;SDS011;50528;48.514;14.394;2022-10-16T02:33:36;60.80;;;3.40;;
64210;SDS011;50528;48.514;14.394;2022-10-16T02:34:42;20.20;;;2.60;;
64210;SDS011;50528;48.514;14.394;2022-10-16T02:35:48;5.20;;;2.40;;
64210;SDS011;50528;48.514;14.394;2022-10-16T02:36:53;7.30;;;2.70;;
64210;SDS011;50528;48.514;14.394;2022-10-16T02:37:59;199.50;;;5.10;;
64210;SDS011;50528;48.514;14.394;2022-10-16T02:39:03;618.60;;;13.00;;
64210;SDS011;50528;48.514;14.394;2022-10-16T02:40:07;457.80;;;9.80;;
64210;SDS011;50528;48.514;14.394;2022-10-16T02:41:11;19.20;;;2.70;;
64210;SDS011;50528;48.514;14.394;2022-10-16T02:42:15;194.00;;;5.70;;
64210;SDS011;50528;48.514;14.394;2022-10-16T02:43:21;52.30;;;3.20;;
64210;SDS011;50528;48.514;14.394;2022-10-16T02:44:24;349.90;;;7.30;;
64210;SDS011;50528;48.514;14.394;2022-10-16T02:45:28;382.10;;;7.60;;
64210;SDS011;50528;48.514;14.394;2022-10-16T02:46:32;150.10;;;3.80;;
64210;SDS011;50528;48.514;14.394;2022-10-16T02:47:35;168.20;;;4.00;;
64210;SDS011;50528;48.514;14.394;2022-10-16T02:48:38;3.70;;;2.30;;
64210;SDS011;50528;48.514;14.394;2022-10-16T02:49:42;137.30;;;3.70;;
64210;SDS011;50528;48.514;14.394;2022-10-16T02:50:45;5.80;;;2.30;;
64210;SDS011;50528;48.514;14.394;2022-10-16T02:51:48;7.10;;;2.50;;
64210;SDS011;50528;48.514;14.394;2022-10-16T02:52:51;10.40;;;2.30;;
64210;SDS011;50528;48.514;14.394;2022-10-16T02:53:55;40.00;;;2.90;;
64210;SDS011;50528;48.514;14.394;2022-10-16T02:54:58;149.00;;;4.70;;
64210;SDS011;50528;48.514;14.394;2022-10-16T02:56:01;3.80;;;2.40;;
64210;SDS011;50528;48.514;14.394;2022-10-16T02:57:04;6.10;;;2.60;;
64210;SDS011;50528;48.514;14.394;2022-10-16T02:58:08;5.30;;;2.50;;
64210;SDS011;50528;48.514;14.394;2022-10-16T02:59:11;12.70;;;2.40;;
64210;SDS011;50528;48.514;14.394;2022-10-16T03:00:16;9.30;;;2.20;;
64210;SDS011;50528;48.514;14.394;2022-10-16T03:01:20;4.50;;;2.50;;
64210;SDS011;50528;48.514;14.394;2022-10-16T03:02:24;4.00;;;2.60;;
64210;SDS011;50528;48.514;14.394;2022-10-16T03:03:28;101.30;;;4.00;;
64210;SDS011;50528;48.514;14.394;2022-10-16T03:04:32;29.30;;;2.30;;
64210;SDS011;50528;48.514;14.394;2022-10-16T03:05:35;72.90;;;3.80;;
64210;SDS011;50528;48.514;14.394;2022-10-16T03:06:38;20.80;;;2.50;;
64210;SDS011;50528;48.514;14.394;2022-10-16T03:07:42;17.00;;;2.70;;
64210;SDS011;50528;48.514;14.394;2022-10-16T03:08:45;11.50;;;2.70;;
64210;SDS011;50528;48.514;14.394;2022-10-16T03:09:51;16.10;;;2.80;;
64210;SDS011;50528;48.514;14.394;2022-10-16T03:10:55;15.30;;;2.40;;
64210;SDS011;50528;48.514;14.394;2022-10-16T03:11:58;16.30;;;2.80;;
64210;SDS011;50528;48.514;14.394;2022-10-16T03:13:01;3.10;;;2.50;;
64210;SDS011;50528;48.514;14.394;2022-10-16T03:14:05;3.20;;;2.60;;
64210;SDS011;50528;48.514;14.394;2022-10-16T03:15:09;5.00;;;2.40;;
64210;SDS011;50528;48.514;14.394;2022-10-16T03:16:13;3.70;;;2.50;;
64210;SDS011;50528;48.514;14.394;2022-10-16T03:17:16;29.70;;;2.80;;
64210;SDS011;50528;48.514;14.394;2022-10-16T03:18:19;3.10;;;2.40;;
64210;SDS011;50528;48.514;14.394;2022-10-16T03:19:22;4.00;;;2.40;;
64210;SDS011;50528;48.514;14.394;2022-10-16T03:20:27;2.70;;;2.20;;
64210;SDS011;50528;48.514;14.394;2022-10-16T03:21:30;3.80;;;2.00;;
64210;SDS011;50528;48.514;14.394;2022-10-16T03:22:33;3.00;;;2.50;;
64210;SDS011;50528;48.514;14.394;2022-10-16T03:23:37;4.00;;;2.30;;
64210;SDS011;50528;48.514;14.394;2022-10-16T03:24:40;2.80;;;2.40;;
64210;SDS011;50528;48.514;14.394;2022-10-16T03:25:43;2.70;;;2.30;;
64210;SDS011;50528;48.514;14.394;2022-10-16T03:26:50;2.60;;;2.10;;
64210;SDS011;50528;48.514;14.394;2022-10-16T03:27:53;4.40;;;2.40;;
64210;SDS011;50528;48.514;14.394;2022-10-16T03:28:56;3.00;;;2.40;;
64210;SDS011;50528;48.514;14.394;2022-10-16T03:29:59;2.40;;;2.00;;
64210;SDS011;50528;48.514;14.394;2022-10-16T03:31:03;2.40;;;1.90;;
64210;SDS011;50528;48.514;14.394;2022-10-16T03:32:06;4.40;;;2.20;;
64210;SDS011;50528;48.514;14.394;2022-10-16T03:33:09;2.90;;;2.00;;
64210;SDS011;50528;48.514;14.394;2022-10-16T03:34:13;2.80;;;1.90;;
64210;SDS011;50528;48.514;14.394;2022-10-16T03:35:17;2.20;;;1.80;;
64210;SDS011;50528;48.514;14.394;2022-10-16T03:36:20;64.00;;;3.10;;
64210;SDS011;50528;48.514;14.394;2022-10-16T03:37:24;226.40;;;6.50;;
64210;SDS011;50528;48.514;14.394;2022-10-16T03:38:28;392.30;;;7.20;;
64210;SDS011;50528;48.514;14.394;2022-10-16T03:39:32;335.60;;;6.00;;
64210;SDS011;50528;48.514;14.394;2022-10-16T03:40:35;174.60;;;4.40;;
64210;SDS011;50528;48.514;14.394;2022-10-16T03:41:39;263.50;;;6.10;;
64210;SDS011;50528;48.514;14.394;2022-10-16T03:42:44;317.60;;;6.90;;
64210;SDS011;50528;48.514;14.394;2022-10-16T03:43:47;263.50;;;5.40;;
64210;SDS011;50528;48.514;14.394;2022-10-16T03:44:51;315.90;;;6.50;;
64210;SDS011;50528;48.514;14.394;2022-10-16T03:45:54;303.40;;;5.40;;
64210;SDS011;50528;48.514;14.394;2022-10-16T03:46:57;271.70;;;5.70;;
64210;SDS011;50528;48.514;14.394;2022-10-16T03:48:00;202.00;;;4.50;;
64210;SDS011;50528;48.514;14.394;2022-10-16T03:49:05;168.00;;;5.10;;
64210;SDS011;50528;48.514;14.394;2022-10-16T03:50:12;234.00;;;4.50;;
64210;SDS011;50528;48.514;14.394;2022-10-16T03:51:15;134.60;;;3.30;;
64210;SDS011;50528;48.514;14.394;2022-10-16T03:52:19;93.40;;;3.10;;
64210;SDS011;50528;48.514;14.394;2022-10-16T03:53:22;167.40;;;4.60;;
64210;SDS011;50528;48.514;14.394;2022-10-16T03:54:25;116.50;;;2.80;;
64210;SDS011;50528;48.514;14.394;2022-10-16T03:55:29;154.80;;;3.80;;
64210;SDS011;50528;48.514;14.394;2022-10-16T03:56:32;116.50;;;3.40;;
64210;SDS011;50528;48.514;14.394;2022-10-16T03:57:35;63.50;;;2.30;;
64210;SDS011;50528;48.514;14.394;2022-10-16T03:58:38;136.50;;;3.40;;
64210;SDS011;50528;48.514;14.394;2022-10-16T03:59:42;92.30;;;3.30;;
64210;SDS011;50528;48.514;14.394;2022-10-16T04:00:45;203.80;;;4.60;;
64210;SDS011;50528;48.514;14.394;2022-10-16T04:01:50;15.90;;;1.90;;
64210;SDS011;50528;48.514;14.394;2022-10-16T04:02:53;94.50;;;3.60;;
64210;SDS011;50528;48.514;14.394;2022-10-16T04:03:57;20.90;;;1.80;;
64210;SDS011;50528;48.514;14.394;2022-10-16T04:05:00;414.70;;;9.80;;
64210;SDS011;50528;48.514;14.394;2022-10-16T04:06:03;88.60;;;2.80;;
64210;SDS011;50528;48.514;14.394;2022-10-16T04:07:07;27.80;;;2.10;;
64210;SDS011;50528;48.514;14.394;2022-10-16T04:08:10;20.50;;;2.10;;
64210;SDS011;50528;48.514;14.394;2022-10-16T04:09:13;89.70;;;3.20;;
64210;SDS011;50528;48.514;14.394;2022-10-16T04:10:17;41.10;;;2.30;;
64210;SDS011;50528;48.514;14.394;2022-10-16T04:11:20;94.10;;;3.40;;
64210;SDS011;50528;48.514;14.394;2022-10-16T04:12:23;134.90;;;3.00;;
64210;SDS011;50528;48.514;14.394;2022-10-16T04:13:27;20.40;;;2.20;;
64210;SDS011;50528;48.514;14.394;2022-10-16T04:14:30;13.90;;;1.80;;
64210;SDS011;50528;48.514;14.394;2022-10-16T04:15:33;2.30;;;1.80;;
64210;SDS011;50528;48.514;14.394;2022-10-16T04:16:37;2.60;;;2.00;;
64210;SDS011;50528;48.514;14.394;2022-10-16T04:17:40;2.60;;;1.90;;
64210;SDS011;50528;48.514;14.394;2022-10-16T04:18:43;4.90;;;2.00;;
64210;SDS011;50528;48.514;14.394;2022-10-16T04:19:46;27.10;;;2.80;;
64210;SDS011;50528;48.514;14.394;2022-10-16T04:20:50;2.80;;;1.80;;
64210;SDS011;50528;48.514;14.394;2022-10-16T04:21:53;3.10;;;1.70;;
64210;SDS011;50528;48.514;14.394;2022-10-16T04:22:56;5.40;;;1.90;;
64210;SDS011;50528;48.514;14.394;2022-10-16T04:23:59;3.20;;;1.90;;
64210;SDS011;50528;48.514;14.394;2022-10-16T04:25:02;25.40;;;2.00;;
64210;SDS011;50528;48.514;14.394;2022-10-16T04:26:06;11.00;;;1.90;;
64210;SDS011;50528;48.514;14.394;2022-10-16T04:27:09;3.30;;;2.10;;
64210;SDS011;50528;48.514;14.394;2022-10-16T04:28:13;3.90;;;2.10;;
64210;SDS011;50528;48.514;14.394;2022-10-16T04:29:16;7.20;;;2.10;;
64210;SDS011;50528;48.514;14.394;2022-10-16T04:30:19;4.00;;;2.20;;
64210;SDS011;50528;48.514;14.394;2022-10-16T04:31:23;3.50;;;1.80;;
64210;SDS011;50528;48.514;14.394;2022-10-16T04:32:28;3.90;;;1.90;;
64210;SDS011;50528;48.514;14.394;2022-10-16T04:33:31;4.60;;;2.10;;
64210;SDS011;50528;48.514;14.394;2022-10-16T04:34:35;3.50;;;2.00;;
64210;SDS011;50528;48.514;14.394;2022-10-16T04:35:38;11.50;;;2.30;;
64210;SDS011;50528;48.514;14.394;2022-10-16T04:36:41;2.80;;;1.80;;
64210;SDS011;50528;48.514;14.394;2022-10-16T04:37:44;98.00;;;3.60;;
64210;SDS011;50528;48.514;14.394;2022-10-16T04:38:48;146.00;;;4.10;;
64210;SDS011;50528;48.514;14.394;2022-10-16T04:39:52;2.40;;;1.70;;
64210;SDS011;50528;48.514;14.394;2022-10-16T04:40:56;129.40;;;4.00;;
64210;SDS011;50528;48.514;14.394;2022-10-16T04:42:00;107.00;;;4.10;;
64210;SDS011;50528;48.514;14.394;2022-10-16T04:43:03;4.00;;;2.20;;
64210;SDS011;50528;48.514;14.394;2022-10-16T04:44:08;3.30;;;2.00;;
64210;SDS011;50528;48.514;14.394;2022-10-16T04:45:11;4.50;;;2.30;;
64210;SDS011;50528;48.514;14.394;2022-10-16T04:46:19;4.30;;;2.10;;
64210;SDS011;50528;48.514;14.394;2022-10-16T04:47:22;244.40;;;6.70;;
64210;SDS011;50528;48.514;14.394;2022-10-16T04:48:25;4.30;;;2.00;;
64210;SDS011;50528;48.514;14.394;2022-10-16T04:49:29;5.90;;;2.80;;
64210;SDS011;50528;48.514;14.394;2022-10-16T04:50:32;6.70;;;2.70;;
64210;SDS011;50528;48.514;14.394;2022-10-16T04:51:39;7.20;;;2.30;;
64210;SDS011;50528;48.514;14.394;2022-10-16T04:52:43;4.80;;;2.50;;
64210;SDS011;50528;48.514;14.394;2022-10-16T04:53:46;174.20;;;5.00;;
64210;SDS011;50528;48.514;14.394;2022-10-16T04:54:49;51.60;;;2.80;;
64210;SDS011;50528;48.514;14.394;2022-10-16T04:55:53;3.50;;;1.90;;
64210;SDS011;50528;48.514;14.394;2022-10-16T04:56:57;2.80;;;1.80;;
64210;SDS011;50528;48.514;14.394;2022-10-16T04:58:04;4.80;;;1.80;;
64210;SDS011;50528;48.514;14.394;2022-10-16T04:59:07;3.20;;;1.60;;
64210;SDS011;50528;48.514;14.394;2022-10-16T05:00:11;3.50;;;1.70;;
64210;SDS011;50528;48.514;14.394;2022-10-16T05:01:15;16.80;;;2.10;;
64210;SDS011;50528;48.514;14.394;2022-10-16T05:02:19;4.90;;;1.90;;
64210;SDS011;50528;48.514;14.394;2022-10-16T05:03:24;4.20;;;2.30;;
64210;SDS011;50528;48.514;14.394;2022-10-16T05:04:28;5.10;;;2.30;;
64210;SDS011;50528;48.514;14.394;2022-10-16T05:05:31;3.60;;;2.10;;
64210;SDS011;50528;48.514;14.394;2022-10-16T05:06:34;4.90;;;2.40;;
64210;SDS011;50528;48.514;14.394;2022-10-16T05:07:38;2.80;;;2.30;;
64210;SDS011;50528;48.514;14.394;2022-10-16T05:08:41;3.40;;;2.50;;
64210;SDS011;50528;48.514;14.394;2022-10-16T05:09:44;3.80;;;2.30;;
64210;SDS011;50528;48.514;14.394;2022-10-16T05:10:47;5.30;;;2.30;;
64210;SDS011;50528;48.514;14.394;2022-10-16T05:11:52;3.70;;;2.20;;
64210;SDS011;50528;48.514;14.394;2022-10-16T05:12:55;4.00;;;2.50;;
64210;SDS011;50528;48.514;14.394;2022-10-16T05:13:59;6.90;;;2.50;;
64210;SDS011;50528;48.514;14.394;2022-10-16T05:15:03;22.10;;;3.00;;
64210;SDS011;50528;48.514;14.394;2022-10-16T05:16:06;3.00;;;2.50;;
64210;SDS011;50528;48.514;14.394;2022-10-16T05:17:10;3.30;;;2.40;;
64210;SDS011;50528;48.514;14.394;2022-10-16T05:18:13;7.60;;;2.40;;
64210;SDS011;50528;48.514;14.394;2022-10-16T05:19:17;111.70;;;4.30;;
64210;SDS011;50528;48.514;14.394;2022-10-16T05:20:30;150.50;;;4.10;;
64210;SDS011;50528;48.514;14.394;2022-10-16T05:21:33;253.10;;;5.30;;
64210;SDS011;50528;48.514;14.394;2022-10-16T05:22:39;242.90;;;6.00;;
64210;SDS011;50528;48.514;14.394;2022-10-16T05:23:43;39.00;;;3.70;;
64210;SDS011;50528;48.514;14.394;2022-10-16T05:24:46;285.10;;;6.00;;
64210;SDS011;50528;48.514;14.394;2022-10-16T05:25:54;238.10;;;5.50;;
64210;SDS011;50528;48.514;14.394;2022-10-16T05:27:01;142.90;;;5.00;;
64210;SDS011;50528;48.514;14.394;2022-10-16T05:28:04;6.70;;;2.70;;
64210;SDS011;50528;48.514;14.394;2022-10-16T05:29:08;111.30;;;3.70;;
64210;SDS011;50528;48.514;14.394;2022-10-16T05:30:12;6.50;;;2.90;;
64210;SDS011;50528;48.514;14.394;2022-10-16T05:31:20;174.70;;;5.10;;
64210;SDS011;50528;48.514;14.394;2022-10-16T05:32:23;3.80;;;2.70;;
64210;SDS011;50528;48.514;14.394;2022-10-16T05:33:26;11.80;;;2.60;;
64210;SDS011;50528;48.514;14.394;2022-10-16T05:34:30;4.90;;;2.60;;
64210;SDS011;50528;48.514;14.394;2022-10-16T05:35:33;27.10;;;2.70;;
64210;SDS011;50528;48.514;14.394;2022-10-16T05:36:39;3.00;;;2.40;;
64210;SDS011;50528;48.514;14.394;2022-10-16T05:37:42;2.80;;;2.30;;
64210;SDS011;50528;48.514;14.394;2022-10-16T05:38:45;7.20;;;2.50;;
64210;SDS011;50528;48.514;14.394;2022-10-16T05:39:48;284.40;;;7.20;;
64210;SDS011;50528;48.514;14.394;2022-10-16T05:40:52;268.70;;;5.80;;
64210;SDS011;50528;48.514;14.394;2022-10-16T05:41:55;97.70;;;3.00;;
64210;SDS011;50528;48.514;14.394;2022-10-16T05:42:58;3.40;;;2.20;;
64210;SDS011;50528;48.514;14.394;2022-10-16T05:44:05;13.20;;;2.60;;
64210;SDS011;50528;48.514;14.394;2022-10-16T05:45:09;4.30;;;2.50;;
64210;SDS011;50528;48.514;14.394;2022-10-16T05:46:14;8.80;;;3.60;;
64210;SDS011;50528;48.514;14.394;2022-10-16T05:47:18;4.80;;;4.20;;
64210;SDS011;50528;48.514;14.394;2022-10-16T05:48:24;20.80;;;6.30;;
64210;SDS011;50528;48.514;14.394;2022-10-16T05:49:28;18.40;;;7.40;;
64210;SDS011;50528;48.514;14.394;2022-10-16T05:50:31;9.40;;;7.20;;
64210;SDS011;50528;48.514;14.394;2022-10-16T05:51:34;9.50;;;8.30;;
64210;SDS011;50528;48.514;14.394;2022-10-16T05:52:37;9.90;;;7.90;;
64210;SDS011;50528;48.514;14.394;2022-10-16T05:53:41;10.80;;;8.40;;
64210;SDS011;50528;48.514;14.394;2022-10-16T05:54:49;20.20;;;8.50;;
64210;SDS011;50528;48.514;14.394;2022-10-16T05:55:56;42.10;;;9.50;;
64210;SDS011;50528;48.514;14.394;2022-10-16T05:56:59;13.60;;;10.00;;
64210;SDS011;50528;48.514;14.394;2022-10-16T05:58:03;20.40;;;11.20;;
64210;SDS011;50528;48.514;14.394;2022-10-16T05:59:06;12.10;;;10.60;;
64210;SDS011;50528;48.514;14.394;2022-10-16T06:00:10;13.50;;;9.90;;
64210;SDS011;50528;48.514;14.394;2022-10-16T06:01:17;16.70;;;10.00;;
64210;SDS011;50528;48.514;14.394;2022-10-16T06:02:21;12.60;;;9.70;;
64210;SDS011;50528;48.514;14.394;2022-10-16T06:03:25;64.50;;;9.20;;
64210;SDS011;50528;48.514;14.394;2022-10-16T06:04:31;9.50;;;8.50;;
64210;SDS011;50528;48.514;14.394;2022-10-16T06:05:34;53.80;;;8.10;;
64210;SDS011;50528;48.514;14.394;2022-10-16T06:06:38;106.10;;;8.40;;
64210;SDS011;50528;48.514;14.394;2022-10-16T06:07:41;138.10;;;9.40;;
64210;SDS011;50528;48.514;14.394;2022-10-16T06:08:45;204.00;;;8.60;;
64210;SDS011;50528;48.514;14.394;2022-10-16T06:09:50;111.30;;;8.10;;
64210;SDS011;50528;48.514;14.394;2022-10-16T06:11:01;7.50;;;5.80;;
64210;SDS011;50528;48.514;14.394;2022-10-16T06:12:05;138.80;;;6.50;;
64210;SDS011;50528;48.514;14.394;2022-10-16T06:13:09;158.20;;;7.20;;
64210;SDS011;50528;48.514;14.394;2022-10-16T06:14:13;127.80;;;6.80;;
64210;SDS011;50528;48.514;14.394;2022-10-16T06:15:24;192.50;;;8.40;;
64210;SDS011;50528;48.514;14.394;2022-10-16T06:16:27;303.70;;;9.00;;
64210;SDS011;50528;48.514;14.394;2022-10-16T06:17:30;345.10;;;9.70;;
64210;SDS011;50528;48.514;14.394;2022-10-16T06:18:34;358.70;;;8.60;;
64210;SDS011;50528;48.514;14.394;2022-10-16T06:19:37;354.70;;;7.80;;
64210;SDS011;50528;48.514;14.394;2022-10-16T06:20:41;410.30;;;11.50;;
64210;SDS011;50528;48.514;14.394;2022-10-16T06:21:44;183.30;;;7.30;;
64210;SDS011;50528;48.514;14.394;2022-10-16T06:22:48;270.80;;;7.80;;
64210;SDS011;50528;48.514;14.394;2022-10-16T06:23:51;211.90;;;7.40;;
64210;SDS011;50528;48.514;14.394;2022-10-16T06:24:55;139.80;;;4.00;;
64210;SDS011;50528;48.514;14.394;2022-10-16T06:26:08;138.80;;;4.50;;
64210;SDS011;50528;48.514;14.394;2022-10-16T06:27:13;75.60;;;3.30;;
64210;SDS011;50528;48.514;14.394;2022-10-16T06:28:17;63.10;;;3.30;;
64210;SDS011;50528;48.514;14.394;2022-10-16T06:29:20;72.70;;;3.50;;
64210;SDS011;50528;48.514;14.394;2022-10-16T06:30:23;49.50;;;3.50;;
64210;SDS011;50528;48.514;14.394;2022-10-16T06:31:27;75.60;;;3.60;;
64210;SDS011;50528;48.514;14.394;2022-10-16T06:32:34;112.30;;;4.90;;
64210;SDS011;50528;48.514;14.394;2022-10-16T06:33:38;37.60;;;3.70;;
64210;SDS011;50528;48.514;14.394;2022-10-16T06:34:42;29.80;;;2.80;;
64210;SDS011;50528;48.514;14.394;2022-10-16T06:35:46;29.60;;;2.80;;
64210;SDS011;50528;48.514;14.394;2022-10-16T06:36:49;18.60;;;2.60;;
64210;SDS011;50528;48.514;14.394;2022-10-16T06:37:53;29.60;;;2.80;;
64210;SDS011;50528;48.514;14.394;2022-10-16T06:38:59;24.70;;;2.90;;
64210;SDS011;50528;48.514;14.394;2022-10-16T06:40:08;18.20;;;2.50;;
64210;SDS011;50528;48.514;14.394;2022-10-16T06:41:13;49.90;;;3.90;;